Time;durP1;ratioP1;P1;durP2;ratioP2;P2;SDS_P1;SDS_P2;PMS_P1;PMS_P2;Temp;Humidity;BMP_temperature;BMP_pressure;BME280_temperature;BME280_humidity;BME280_pressure;Samples;Min_cycle;Max_cycle;Signal;HPM_P1;HPM_P2
2022/03/20 00:01:54;;;;;;;8.57;4.43;;;;;;;6.07;52.65;103184.63;5249017;28;20484;-78
2022/03/20 00:04:26;;;;;;;7.33;3.83;;;;;;;6.22;52.52;103194.97;5250153;28;20632;-77
2022/03/20 00:06:57;;;;;;;10.03;5.00;;;;;;;6.12;52.93;103188.06;5242560;28;20615;-76
2022/03/20 00:09:29;;;;;;;22.13;5.97;;;;;;;6.07;53.04;103182.88;5221037;28;20092;-73
2022/03/20 00:12:01;;;;;;;8.43;4.60;;;;;;;5.94;53.36;103176.81;5233617;28;20067;-74
2022/03/20 00:14:32;;;;;;;7.43;3.70;;;;;;;5.91;53.76;103177.69;5231388;28;20488;-74
2022/03/20 00:17:03;;;;;;;8.03;4.13;;;;;;;5.90;53.69;103186.34;5250262;28;20032;-73
2022/03/20 00:19:35;;;;;;;14.03;5.67;;;;;;;5.85;53.99;103176.84;5231758;28;20029;-74
2022/03/20 00:22:07;;;;;;;14.10;4.83;;;;;;;5.93;53.84;103173.31;5250313;28;20573;-78
2022/03/20 00:24:42;;;;;;;10.37;5.30;;;;;;;6.01;53.56;103172.44;5250413;28;20024;-78
2022/03/20 00:27:14;;;;;;;8.07;4.50;;;;;;;6.00;53.67;103166.41;5249573;28;20017;-76
2022/03/20 00:29:45;;;;;;;10.63;4.40;;;;;;;5.99;53.68;103161.16;5230929;28;20411;-78
2022/03/20 00:32:19;;;;;;;9.87;4.63;;;;;;;5.92;54.29;103160.34;5249856;28;20044;-78
2022/03/20 00:34:56;;;;;;;9.48;5.07;;;;;;;5.97;53.95;103149.94;5249963;28;20036;-79
2022/03/20 00:37:29;;;;;;;11.67;4.63;;;;;;;5.93;54.04;103147.31;5248462;28;20091;-77
2022/03/20 00:40:00;;;;;;;12.57;5.13;;;;;;;5.95;54.24;103138.66;5240177;28;20036;-76
2022/03/20 00:42:31;;;;;;;11.30;5.20;;;;;;;5.94;54.20;103132.59;5252311;28;20025;-77
2022/03/20 00:45:04;;;;;;;11.73;6.40;;;;;;;5.86;54.19;103110.94;5231251;28;20021;-77
2022/03/20 00:47:36;;;;;;;11.23;5.57;;;;;;;5.77;54.72;103117.91;5230751;28;20365;-77
2022/03/20 00:50:07;;;;;;;13.17;5.90;;;;;;;5.81;54.47;103119.63;5237860;28;20052;-76
2022/03/20 00:52:39;;;;;;;8.10;5.70;;;;;;;5.86;54.51;103119.63;5235505;28;20119;-77
2022/03/20 00:55:10;;;;;;;10.90;5.83;;;;;;;5.85;54.49;103114.44;5253476;28;20036;-77
2022/03/20 00:57:42;;;;;;;12.33;6.27;;;;;;;5.82;54.88;103117.88;5254279;28;20036;-77
2022/03/20 01:00:13;;;;;;;13.27;5.97;;;;;;;5.70;54.86;103105.78;5252225;28;20057;-77
2022/03/20 01:02:45;;;;;;;10.60;5.77;;;;;;;5.62;55.26;103107.56;5253032;28;20132;-77
2022/03/20 01:05:17;;;;;;;10.40;6.27;;;;;;;5.63;55.24;103106.66;5252956;28;20029;-77
2022/03/20 01:07:48;;;;;;;11.87;7.07;;;;;;;5.54;56.10;103097.16;5236150;28;20487;-77
2022/03/20 01:10:19;;;;;;;10.23;6.00;;;;;;;5.49;55.99;103088.50;5235500;28;20029;-76
2022/03/20 01:12:51;;;;;;;11.43;6.50;;;;;;;5.50;55.78;103083.28;5253565;28;20037;-75
2022/03/20 01:15:22;;;;;;;12.60;6.37;;;;;;;5.53;55.87;103091.06;5252905;28;20130;-77
2022/03/20 01:17:53;;;;;;;10.53;7.60;;;;;;;5.42;56.54;103090.25;5253391;28;20021;-76
2022/03/20 01:20:25;;;;;;;8.27;6.07;;;;;;;5.33;56.33;103086.81;5252831;28;20025;-77
2022/03/20 01:22:56;;;;;;;11.67;6.63;;;;;;;5.26;57.19;103082.47;5253885;28;20024;-76
2022/03/20 01:25:30;;;;;;;15.57;7.07;;;;;;;5.32;56.68;103079.84;5252589;28;20036;-77
2022/03/20 01:28:01;;;;;;;10.87;6.57;;;;;;;5.26;56.65;103071.19;5253693;28;20006;-76
2022/03/20 01:30:32;;;;;;;13.37;7.37;;;;;;;5.24;56.87;103072.94;5252281;28;20032;-76
2022/03/20 01:33:04;;;;;;;16.47;8.73;;;;;;;5.24;56.71;103066.00;5252757;28;20029;-76
2022/03/20 01:35:36;;;;;;;13.93;7.33;;;;;;;5.07;57.26;103050.44;5253279;28;20031;-76
2022/03/20 01:38:08;;;;;;;10.13;7.07;;;;;;;5.16;57.01;103052.19;5252846;28;20040;-76
2022/03/20 01:40:39;;;;;;;15.43;7.40;;;;;;;5.03;57.32;103047.00;5253619;28;20029;-77
2022/03/20 01:43:10;;;;;;;18.67;8.00;;;;;;;5.02;57.19;103032.28;5251386;28;20024;-76
2022/03/20 01:45:42;;;;;;;12.53;7.30;;;;;;;5.04;57.01;103027.97;5257553;28;20572;-76
2022/03/20 01:48:13;;;;;;;12.70;8.73;;;;;;;4.91;57.65;103026.22;5253110;28;20045;-76
2022/03/20 01:50:44;;;;;;;18.03;8.90;;;;;;;4.89;57.64;103028.81;5251408;28;20025;-76
2022/03/20 01:53:19;;;;;;;11.93;8.43;;;;;;;5.04;57.25;103025.38;5252886;28;20041;-76
2022/03/20 01:55:51;;;;;;;21.48;9.13;;;;;;;4.95;57.27;103030.56;5252708;28;20025;-76
2022/03/20 01:58:22;;;;;;;14.10;9.87;;;;;;;4.92;57.27;103023.63;5251876;28;20047;-76
2022/03/20 02:00:53;;;;;;;13.77;9.67;;;;;;;4.91;57.56;103015.81;5252300;28;20029;-76
2022/03/20 02:03:25;;;;;;;17.80;11.37;;;;;;;4.89;57.27;103018.44;5252829;28;20031;-76
2022/03/20 02:05:56;;;;;;;14.93;10.80;;;;;;;4.89;57.21;103018.44;5254168;28;20118;-76
2022/03/20 02:08:30;;;;;;;17.23;12.13;;;;;;;4.76;57.41;103007.19;5251681;28;20320;-75
2022/03/20 02:11:01;;;;;;;16.27;11.87;;;;;;;4.72;57.35;103000.25;5252479;28;20029;-76
2022/03/20 02:13:34;;;;;;;19.93;12.93;;;;;;;4.69;57.59;103006.34;5233185;28;20581;-76
2022/03/20 02:16:05;;;;;;;17.87;12.13;;;;;;;4.66;57.21;102989.91;5252419;28;20029;-76
2022/03/20 02:18:37;;;;;;;20.87;13.83;;;;;;;4.64;57.41;102991.63;5252358;28;20024;-76
2022/03/20 02:21:08;;;;;;;22.13;14.20;;;;;;;4.50;57.53;102991.59;5252095;28;20106;-77
2022/03/20 02:23:39;;;;;;;18.47;13.27;;;;;;;4.64;57.01;102992.50;5252690;28;20024;-76
2022/03/20 02:26:11;;;;;;;20.97;13.70;;;;;;;4.65;56.93;102985.56;5251753;28;20368;-76
2022/03/20 02:28:42;;;;;;;20.23;15.27;;;;;;;4.63;57.18;102987.28;5251866;28;20666;-77
2022/03/20 02:31:13;;;;;;;22.67;14.93;;;;;;;4.51;57.14;102977.75;5252116;28;20040;-76
2022/03/20 02:33:45;;;;;;;24.30;14.57;;;;;;;4.56;57.00;102979.50;5251973;28;20063;-76
2022/03/20 02:36:17;;;;;;;27.90;14.97;;;;;;;4.51;57.18;102976.03;5252105;28;20029;-76
2022/03/20 02:38:48;;;;;;;23.97;15.67;;;;;;;4.55;56.90;102964.81;5241147;28;20031;-76
2022/03/20 02:41:20;;;;;;;20.53;15.77;;;;;;;4.50;56.85;102966.53;5252075;28;20493;-76
2022/03/20 02:43:51;;;;;;;22.77;16.37;;;;;;;4.51;57.01;102967.38;5250571;28;20017;-75
2022/03/20 02:46:22;;;;;;;24.63;16.53;;;;;;;4.54;56.89;102965.66;5251966;28;20025;-75
2022/03/20 02:48:55;;;;;;;25.10;16.53;;;;;;;4.32;57.15;102944.91;5251779;28;20059;-76
2022/03/20 02:51:26;;;;;;;24.63;16.67;;;;;;;4.36;57.14;102949.22;5251484;28;20032;-75
2022/03/20 02:53:57;;;;;;;21.53;16.33;;;;;;;4.44;56.83;102953.53;5251279;28;20472;-76
2022/03/20 02:56:29;;;;;;;22.40;16.67;;;;;;;4.41;56.96;102953.53;5251516;28;20049;-75
2022/03/20 02:59:02;;;;;;;23.07;17.10;;;;;;;4.34;57.11;102950.97;5251047;28;20071;-76
2022/03/20 03:01:33;;;;;;;25.00;17.67;;;;;;;4.35;57.29;102949.22;5251227;28;20384;-75
2022/03/20 03:04:05;;;;;;;24.30;17.07;;;;;;;4.23;57.64;102945.75;5232830;28;20422;-75
2022/03/20 03:06:37;;;;;;;20.57;15.50;;;;;;;4.29;57.07;102944.91;5251804;28;20036;-75
2022/03/20 03:12:04;;;;;;;23.10;16.73;;;;;;;4.20;57.29;102939.69;5230600;28;20033;-74
2022/03/20 03:17:28;;;;;;;23.23;16.73;;;;;;;4.22;57.16;102923.25;5250738;28;20029;-75
2022/03/20 03:19:59;;;;;;;25.38;18.02;;;;;;;4.29;56.85;102918.09;5251334;28;20025;-75
2022/03/20 03:22:31;;;;;;;24.40;17.73;;;;;;;4.05;57.39;102907.69;5251291;28;20032;-75
2022/03/20 03:25:02;;;;;;;24.53;17.97;;;;;;;4.14;56.87;102903.41;5250889;28;20031;-75
2022/03/20 03:27:33;;;;;;;24.17;18.27;;;;;;;4.24;56.80;102905.13;5251228;28;20028;-75
2022/03/20 03:30:05;;;;;;;26.00;19.77;;;;;;;4.20;57.05;102911.16;5249668;28;20035;-76
2022/03/20 03:32:36;;;;;;;26.90;19.17;;;;;;;4.26;56.75;102903.38;5251127;28;20028;-75
2022/03/20 03:38:00;;;;;;;29.00;18.93;;;;;;;4.04;57.31;102893.00;5250927;28;20033;-75
2022/03/20 03:40:32;;;;;;;29.87;19.73;;;;;;;3.98;57.47;102883.47;5250600;28;20025;-75
2022/03/20 03:43:03;;;;;;;31.77;19.13;;;;;;;4.03;57.34;102890.41;5249944;28;20021;-75
2022/03/20 03:45:35;;;;;;;30.03;20.57;;;;;;;3.91;57.63;102884.31;5233232;28;20025;-75
2022/03/20 03:48:08;;;;;;;26.63;20.07;;;;;;;3.89;57.66;102867.94;5250400;28;20052;-75
2022/03/20 03:50:41;;;;;;;29.60;20.80;;;;;;;3.99;57.47;102868.78;5251307;28;20384;-75
2022/03/20 03:53:13;;;;;;;31.00;21.48;;;;;;;3.99;57.51;102876.56;5250392;28;20032;-75
2022/03/20 03:55:44;;;;;;;32.07;20.07;;;;;;;3.92;57.55;102861.88;5251031;28;20017;-75
2022/03/20 03:58:16;;;;;;;27.27;19.17;;;;;;;3.92;57.68;102864.47;5249881;28;20044;-75
2022/03/20 04:00:47;;;;;;;27.10;20.43;;;;;;;3.90;57.73;102864.47;5250635;28;20123;-75
2022/03/20 04:03:18;;;;;;;28.60;20.23;;;;;;;3.79;58.37;102867.03;5250861;28;20179;-76
2022/03/20 04:05:49;;;;;;;30.60;20.47;;;;;;;3.87;58.49;102861.88;5250625;28;20028;-75
2022/03/20 04:08:21;;;;;;;31.13;21.03;;;;;;;3.80;58.31;102852.34;5250782;28;20051;-75
2022/03/20 04:10:52;;;;;;;28.13;20.87;;;;;;;3.82;58.32;102851.47;5232441;28;20029;-75
2022/03/20 04:13:23;;;;;;;27.23;19.80;;;;;;;3.81;58.50;102844.56;5248915;28;20037;-74
2022/03/20 04:15:54;;;;;;;26.63;18.97;;;;;;;3.83;58.27;102842.84;5250707;28;20025;-75
2022/03/20 04:18:26;;;;;;;30.43;20.80;;;;;;;3.76;58.46;102835.94;5249694;28;20037;-75
2022/03/20 04:20:57;;;;;;;26.10;20.00;;;;;;;3.75;58.97;102836.81;5250293;28;20025;-72
2022/03/20 04:23:49;;;;;;;28.77;22.13;;;;;;;3.67;59.05;102831.59;5233976;28;20025;-74
2022/03/20 04:26:22;;;;;;;33.47;20.27;;;;;;;3.62;59.41;102826.41;5254878;28;20506;-75
2022/03/20 04:28:53;;;;;;;29.13;19.97;;;;;;;3.59;59.06;102812.59;5253421;28;20036;-75
2022/03/20 04:31:24;;;;;;;32.20;21.23;;;;;;;3.47;59.61;102803.91;5254276;28;20021;-75
2022/03/20 04:33:56;;;;;;;30.20;20.83;;;;;;;3.53;59.64;102808.25;5254826;28;20021;-75
2022/03/20 04:36:27;;;;;;;31.37;20.63;;;;;;;3.25;60.21;102798.69;5253915;28;20036;-75
2022/03/20 04:39:00;;;;;;;29.47;19.97;;;;;;;3.39;60.08;102800.44;5254786;28;20052;-75
2022/03/20 04:41:32;;;;;;;30.87;21.43;;;;;;;3.17;60.67;102789.19;5254151;28;20123;-75
2022/03/20 04:44:03;;;;;;;29.93;21.83;;;;;;;3.30;60.31;102803.03;5253319;28;20033;-75
2022/03/20 04:46:34;;;;;;;26.13;20.07;;;;;;;3.28;60.27;102810.81;5235691;28;20025;-75
2022/03/20 05:00:26;;;;;;;35.37;21.83;;;;;;;3.20;60.34;102782.28;5253131;28;20128;-75
2022/03/20 05:02:57;;;;;;;32.83;22.43;;;;;;;3.18;60.29;102770.22;5235936;28;20503;-72
2022/03/20 05:05:28;;;;;;;29.80;21.33;;;;;;;3.21;60.39;102785.75;5253765;28;20468;-75
2022/03/20 05:08:00;;;;;;;28.90;21.90;;;;;;;3.20;60.07;102768.47;5253839;28;20729;-75
2022/03/20 05:13:21;;;;;;;33.77;22.63;;;;;;;3.12;60.38;102771.94;5253109;28;20052;-75
2022/03/20 05:15:57;;;;;;;34.13;23.30;;;;;;;2.98;61.13;102761.53;5253924;28;20064;-75
2022/03/20 05:18:28;;;;;;;34.63;23.47;;;;;;;2.96;61.38;102770.13;5253791;28;20028;-75
2022/03/20 05:20:59;;;;;;;36.13;22.70;;;;;;;2.99;61.18;102760.66;5253369;28;20040;-75
2022/03/20 05:23:32;;;;;;;28.10;21.80;;;;;;;3.07;60.95;102758.06;5254028;28;20032;-75
2022/03/20 05:26:04;;;;;;;31.83;23.57;;;;;;;2.93;61.27;102754.59;5239054;28;20040;-75
2022/03/20 05:28:35;;;;;;;31.50;22.50;;;;;;;2.82;61.21;102737.31;5252152;28;20284;-75
2022/03/20 05:31:06;;;;;;;31.10;23.13;;;;;;;2.89;61.12;102744.22;5253429;28;20060;-75
2022/03/20 05:33:38;;;;;;;32.33;22.87;;;;;;;2.94;61.08;102761.50;5253591;28;20032;-75
2022/03/20 05:36:09;;;;;;;32.63;23.87;;;;;;;2.92;61.04;102748.53;5252089;28;20442;-75
2022/03/20 05:38:40;;;;;;;33.60;22.70;;;;;;;2.92;60.87;102756.31;5253506;28;20029;-75
2022/03/20 05:44:02;;;;;;;36.20;23.13;;;;;;;2.85;60.89;102726.97;5252492;28;20041;-73
2022/03/20 05:46:33;;;;;;;27.10;21.03;;;;;;;2.96;60.47;102733.88;5218838;28;20032;-75
2022/03/20 05:49:05;;;;;;;31.67;23.07;;;;;;;2.82;61.00;102732.13;5235015;28;20671;-74
2022/03/20 05:51:37;;;;;;;27.87;22.07;;;;;;;2.80;60.65;102712.25;5246667;28;20040;-74
2022/03/20 05:54:09;;;;;;;33.70;24.10;;;;;;;2.77;61.03;102728.66;5234722;28;20307;-73
2022/03/20 05:59:34;;;;;;;35.47;22.20;;;;;;;2.86;60.59;102728.66;5231479;28;20030;-72
2022/03/20 06:02:08;;;;;;;31.47;22.40;;;;;;;2.69;60.78;102731.19;5240292;28;20413;-77
2022/03/20 06:04:39;;;;;;;31.35;21.60;;;;;;;2.70;60.49;102721.72;5242036;28;20275;-77
2022/03/20 06:07:11;;;;;;;31.50;22.97;;;;;;;2.74;60.17;102723.47;5240103;28;20014;-77
2022/03/20 06:09:42;;;;;;;27.50;21.17;;;;;;;2.84;59.84;102722.66;5230442;28;20032;-77
2022/03/20 06:12:13;;;;;;;28.53;19.93;;;;;;;2.79;59.60;102726.94;5250611;28;20017;-77
2022/03/20 06:14:45;;;;;;;30.73;21.30;;;;;;;2.80;59.61;102718.31;5250997;28;20580;-78
2022/03/20 06:17:17;;;;;;;32.37;21.23;;;;;;;2.86;59.13;102718.31;5252349;28;20055;-77
2022/03/20 06:19:49;;;;;;;31.73;20.47;;;;;;;2.83;58.70;102723.50;5252299;28;20475;-77
2022/03/20 06:22:20;;;;;;;31.83;22.00;;;;;;;2.90;58.26;102722.66;5252009;28;20611;-77
2022/03/20 06:24:52;;;;;;;27.50;19.90;;;;;;;2.86;58.05;102713.16;5235080;28;20075;-77
2022/03/20 06:27:23;;;;;;;31.93;20.97;;;;;;;2.94;57.24;102722.66;5250677;28;20060;-77
2022/03/20 06:29:55;;;;;;;31.00;20.97;;;;;;;2.87;57.31;102721.78;5250453;28;20385;-78
2022/03/20 06:32:27;;;;;;;28.83;19.10;;;;;;;2.92;56.83;102724.38;5252364;28;20053;-77
2022/03/20 06:34:58;;;;;;;33.27;19.13;;;;;;;2.96;56.71;102723.53;5251588;28;20029;-73
2022/03/20 06:37:35;;;;;;;24.83;18.73;;;;;;;3.07;56.10;102719.22;5252764;28;20025;-78
2022/03/20 06:40:07;;;;;;;26.53;18.37;;;;;;;3.05;56.20;102718.41;5251431;28;20106;-78
2022/03/20 06:42:38;;;;;;;30.93;21.23;;;;;;;3.07;55.88;102714.06;5233220;28;20031;-79
2022/03/20 06:45:14;;;;;;;30.10;19.07;;;;;;;3.09;55.56;102701.16;5233887;28;20021;-77
2022/03/20 06:47:46;;;;;;;27.63;18.57;;;;;;;3.19;56.08;102700.28;5252503;28;20028;-78
2022/03/20 06:50:17;;;;;;;29.57;20.43;;;;;;;3.26;55.20;102701.16;5250639;28;20036;-76
2022/03/20 06:52:49;;;;;;;30.63;18.67;;;;;;;3.24;55.38;102703.75;5242493;28;20025;-76
2022/03/20 06:55:20;;;;;;;26.57;18.90;;;;;;;3.30;54.91;102687.34;5236414;28;20047;-76
2022/03/20 06:57:51;;;;;;;24.80;18.30;;;;;;;3.36;55.21;102679.59;5250376;28;20028;-77
2022/03/20 07:00:26;;;;;;;33.47;19.53;;;;;;;3.46;55.02;102685.63;5251451;28;20078;-77
2022/03/20 07:03:03;;;;;;;26.98;19.38;;;;;;;3.47;54.69;102696.84;5251817;28;20021;-73
2022/03/20 07:05:35;;;;;;;28.20;18.30;;;;;;;3.53;54.28;102690.78;5233823;28;20017;-77
2022/03/20 07:08:07;;;;;;;30.33;19.47;;;;;;;3.55;53.95;102682.16;5251325;28;20025;-77
2022/03/20 07:10:38;;;;;;;24.20;18.80;;;;;;;3.61;54.08;102689.09;5249917;28;20037;-76
2022/03/20 07:13:55;;;;;;;28.67;19.27;;;;;;;3.63;53.74;102677.00;5249344;28;20055;-77
2022/03/20 07:16:01;;;;;;;23.23;17.23;;;;;;;3.67;53.84;102667.47;5240471;28;20043;-76
2022/03/20 07:18:36;;;;;;;24.27;17.17;;;;;;;3.72;52.95;102673.50;5251515;28;20025;-77
2022/03/20 07:21:08;;;;;;;28.25;19.63;;;;;;;3.75;52.68;102660.56;5250759;28;20021;-77
2022/03/20 07:23:40;;;;;;;25.03;19.00;;;;;;;3.78;52.45;102662.28;5251551;28;20503;-77
2022/03/20 07:31:51;;;;;;;28.80;20.03;;;;;;;3.85;51.91;102636.34;5251480;28;20036;-77
2022/03/20 07:34:22;;;;;;;24.40;17.30;;;;;;;3.87;51.40;102642.38;5251110;28;20025;-76
2022/03/20 07:36:54;;;;;;;30.30;19.10;;;;;;;3.89;50.76;102644.13;5251100;28;20115;-78
2022/03/20 07:39:25;;;;;;;25.33;17.67;;;;;;;3.91;51.26;102647.56;5250501;28;20040;-77
2022/03/20 07:41:57;;;;;;;27.57;17.80;;;;;;;3.92;50.76;102651.88;5251094;28;20686;-77
2022/03/20 07:44:31;;;;;;;25.43;17.57;;;;;;;3.89;50.54;102649.28;5250205;28;20031;-78
2022/03/20 07:47:05;;;;;;;30.77;17.52;;;;;;;3.85;50.04;102657.09;5250723;28;20033;-76
2022/03/20 07:49:37;;;;;;;26.67;18.57;;;;;;;3.84;49.89;102647.56;5250817;28;20511;-77
2022/03/20 07:52:09;;;;;;;26.13;18.57;;;;;;;3.85;50.22;102643.25;5252108;28;20044;-78
2022/03/20 07:54:41;;;;;;;23.93;16.63;;;;;;;3.92;50.42;102644.09;5235943;28;20371;-77
2022/03/20 07:57:14;;;;;;;27.43;18.33;;;;;;;3.99;49.87;102656.19;5249687;28;20163;-77
2022/03/20 07:59:45;;;;;;;29.60;18.43;;;;;;;3.92;49.73;102654.47;5250049;28;20029;-77
2022/03/20 08:02:16;;;;;;;23.70;16.57;;;;;;;3.93;50.15;102643.22;5232934;28;20958;-77
2022/03/20 08:04:47;;;;;;;25.23;16.70;;;;;;;4.00;50.05;102639.75;5250590;28;20024;-77
2022/03/20 08:07:23;;;;;;;23.33;17.13;;;;;;;4.08;50.23;102648.38;5231911;28;20057;-77
2022/03/20 08:09:55;;;;;;;26.73;17.57;;;;;;;4.04;49.57;102638.00;5250692;28;20232;-78
2022/03/20 08:12:26;;;;;;;26.00;19.43;;;;;;;4.02;49.50;102640.63;5250155;28;20025;-78
2022/03/20 08:14:58;;;;;;;26.93;18.27;;;;;;;4.05;49.86;102643.19;5232848;28;20074;-77
2022/03/20 08:17:30;;;;;;;26.03;18.20;;;;;;;4.07;49.58;102638.00;5250821;28;20063;-78
2022/03/20 08:20:02;;;;;;;28.93;18.60;;;;;;;4.02;49.33;102650.13;5231388;28;20573;-77
2022/03/20 08:22:33;;;;;;;23.73;16.93;;;;;;;4.05;49.10;102634.56;5232954;28;20395;-78
2022/03/20 08:25:05;;;;;;;30.13;17.07;;;;;;;4.11;49.49;102634.53;5250412;28;20069;-77
2022/03/20 08:27:49;;;;;;;31.50;19.23;;;;;;;4.13;49.90;102637.13;5249670;28;20032;-78
2022/03/20 08:30:21;;;;;;;25.17;16.95;;;;;;;4.08;48.47;102619.00;5249553;28;20021;-78
2022/03/20 08:32:53;;;;;;;36.57;18.70;;;;;;;4.17;48.87;102628.47;5250509;28;20025;-78
2022/03/20 08:35:25;;;;;;;27.50;18.77;;;;;;;4.25;49.50;102621.53;5249736;28;20087;-78
2022/03/20 08:37:56;;;;;;;28.53;17.40;;;;;;;4.31;48.73;102625.81;5250518;28;20472;-78
2022/03/20 08:40:27;;;;;;;24.07;17.17;;;;;;;4.32;48.75;102607.66;5249414;28;20103;-78
2022/03/20 08:42:59;;;;;;;26.00;19.10;;;;;;;4.31;48.47;102616.28;5248861;28;20468;-77
2022/03/20 08:45:33;;;;;;;24.43;17.07;;;;;;;4.41;49.53;102624.03;5250117;28;20033;-76
2022/03/20 08:48:04;;;;;;;27.33;18.45;;;;;;;4.35;50.35;102611.94;5249798;28;20083;-79
2022/03/20 08:50:36;;;;;;;25.00;17.23;;;;;;;4.39;48.88;102623.19;5250278;28;20029;-82
2022/03/20 08:53:07;;;;;;;29.20;18.10;;;;;;;4.42;48.57;102623.16;5250477;28;20036;-81
2022/03/20 08:55:38;;;;;;;24.23;17.20;;;;;;;4.46;48.71;102624.88;5241889;28;20021;-81
2022/03/20 08:58:10;;;;;;;24.07;16.57;;;;;;;4.53;48.58;102633.50;5232330;28;20025;-82
2022/03/20 09:00:42;;;;;;;27.20;17.67;;;;;;;4.52;48.59;102630.03;5224517;28;20078;-84
2022/03/20 09:03:13;;;;;;;24.00;17.40;;;;;;;4.51;49.01;102617.06;5234587;28;20029;-83
2022/03/20 09:05:45;;;;;;;26.83;18.43;;;;;;;4.41;48.03;102618.84;5243866;28;20029;-84
2022/03/20 09:08:16;;;;;;;26.60;17.93;;;;;;;4.51;48.81;102622.25;5249278;28;20063;-84
2022/03/20 09:10:51;;;;;;;26.97;16.87;;;;;;;4.59;49.11;102610.13;5254052;28;20028;-84
2022/03/20 09:13:22;;;;;;;26.43;18.10;;;;;;;4.68;48.81;102603.97;5252234;28;20500;-83
2022/03/20 09:18:59;;;;;;;26.20;17.77;;;;;;;5.73;47.80;102595.28;5253632;28;20516;-82
2022/03/20 09:21:33;;;;;;;26.47;17.87;;;;;;;6.37;45.58;102589.34;5252543;28;20029;-79
2022/03/20 09:24:06;;;;;;;22.95;17.90;;;;;;;7.27;43.74;102602.72;5252565;28;20033;-70
2022/03/20 09:26:37;;;;;;;28.70;17.37;;;;;;;8.27;41.50;102592.13;5253107;28;20033;-70
2022/03/20 09:29:09;;;;;;;23.77;16.50;;;;;;;9.33;39.86;102581.78;5251382;28;20376;-70
2022/03/20 09:31:40;;;;;;;28.47;18.73;;;;;;;10.32;37.72;102589.47;5253375;28;20080;-70
2022/03/20 09:34:11;;;;;;;26.00;18.00;;;;;;;10.61;36.66;102570.25;5252998;28;20032;-70
2022/03/20 09:36:43;;;;;;;25.83;18.63;;;;;;;10.88;35.51;102578.13;5252121;28;20087;-70
2022/03/20 09:39:14;;;;;;;21.93;17.43;;;;;;;10.33;35.81;102581.59;5252829;28;20052;-70
2022/03/20 09:41:47;;;;;;;22.83;17.80;;;;;;;9.88;37.30;102565.44;5252360;28;20036;-70
2022/03/20 09:44:22;;;;;;;30.90;18.80;;;;;;;9.79;37.25;102548.25;5252740;28;20024;-71
2022/03/20 09:46:54;;;;;;;27.77;17.83;;;;;;;9.99;37.10;102548.56;5251861;28;20036;-70
2022/03/20 09:49:25;;;;;;;22.83;18.63;;;;;;;10.45;36.24;102556.78;5251144;28;20029;-70
2022/03/20 09:51:57;;;;;;;22.60;17.47;;;;;;;10.25;36.29;102555.63;5251755;28;20127;-69
2022/03/20 09:54:28;;;;;;;24.90;18.80;;;;;;;9.60;36.40;102558.38;5246567;28;20029;-71
2022/03/20 09:57:04;;;;;;;29.77;18.90;;;;;;;9.50;37.69;102555.16;5238010;28;20059;-71
2022/03/20 09:59:38;;;;;;;25.57;18.57;;;;;;;9.19;38.13;102566.47;5235456;28;20037;-68
2022/03/20 10:02:11;;;;;;;25.93;19.60;;;;;;;8.78;38.79;102561.41;5235372;28;20091;-68
2022/03/20 10:05:18;;;;;;;26.53;19.63;;;;;;;8.58;39.34;102566.19;5235223;28;20036;-74
2022/03/20 10:07:50;;;;;;;30.63;21.67;;;;;;;8.20;39.88;102560.91;5239245;28;20036;-67
2022/03/20 10:10:28;;;;;;;28.53;19.93;;;;;;;7.91;40.77;102559.78;5255613;28;20035;-65
2022/03/20 10:13:00;;;;;;;30.20;20.70;;;;;;;7.67;40.29;102561.16;5252503;28;20375;-68
2022/03/20 10:15:42;;;;;;;32.67;20.17;;;;;;;7.70;41.63;102567.16;5239425;28;20037;-68
2022/03/20 10:18:15;;;;;;;27.30;20.47;;;;;;;7.54;41.34;102552.72;5242142;28;20049;-67
2022/03/20 10:20:49;;;;;;;30.15;21.92;;;;;;;7.52;41.70;102554.50;5217492;28;20052;-73
2022/03/20 10:23:39;;;;;;;33.47;22.30;;;;;;;7.42;42.03;102548.59;5235140;28;20033;-72
2022/03/20 10:26:13;;;;;;;32.17;22.80;;;;;;;7.57;41.62;102547.44;5230400;28;20032;-69
2022/03/20 10:28:48;;;;;;;29.70;21.52;;;;;;;7.42;42.62;102554.66;5227644;28;20029;-70
2022/03/20 10:31:22;;;;;;;31.17;22.07;;;;;;;7.38;42.86;102545.19;5237798;28;20056;-68
2022/03/20 10:34:00;;;;;;;34.97;23.93;;;;;;;7.38;43.40;102548.63;5248494;28;20379;-69
2022/03/20 10:36:33;;;;;;;33.47;24.63;;;;;;;7.24;46.50;102550.66;5236603;28;20067;-69
2022/03/20 10:39:16;;;;;;;32.73;23.33;;;;;;;6.95;49.31;102563.31;5239736;28;20477;-66
2022/03/20 10:41:51;;;;;;;30.80;25.03;;;;;;;6.77;51.12;102572.28;5230046;28;20022;-67
2022/03/20 10:44:25;;;;;;;33.50;25.87;;;;;;;6.73;52.15;102575.81;5231493;28;20018;-68
2022/03/20 10:46:59;;;;;;;33.80;25.60;;;;;;;6.82;52.04;102554.84;5213073;28;20026;-69
2022/03/20 10:49:31;;;;;;;38.97;26.50;;;;;;;6.92;52.37;102558.16;5231152;28;20059;-71
2022/03/20 10:52:04;;;;;;;31.37;24.40;;;;;;;6.97;52.08;102560.66;5230807;28;20128;-70
2022/03/20 10:54:45;;;;;;;32.40;25.93;;;;;;;6.89;52.61;102569.47;5238655;28;20025;-69
2022/03/20 10:57:17;;;;;;;32.63;24.60;;;;;;;6.96;53.68;102571.97;5252770;28;20033;-66
2022/03/20 11:00:07;;;;;;;34.33;25.60;;;;;;;7.09;53.98;102564.81;5251709;28;20020;-66
2022/03/20 11:02:40;;;;;;;36.30;26.57;;;;;;;6.65;55.88;102586.34;5251379;28;20735;-67
2022/03/20 11:05:11;;;;;;;32.77;25.17;;;;;;;6.53;57.04;102567.41;5233974;28;20059;-67
2022/03/20 11:07:43;;;;;;;35.47;28.00;;;;;;;6.51;57.64;102579.59;5252111;28;20040;-68
2022/03/20 11:10:14;;;;;;;34.40;26.70;;;;;;;6.20;58.60;102580.03;5251084;28;20116;-69
2022/03/20 11:12:46;;;;;;;36.23;27.37;;;;;;;6.22;59.29;102577.41;5250699;28;20086;-70
2022/03/20 11:15:18;;;;;;;36.97;26.20;;;;;;;6.13;60.18;102578.38;5250780;28;20141;-69
2022/03/20 11:17:50;;;;;;;35.43;26.87;;;;;;;6.07;60.83;102568.06;5251496;28;20099;-69
2022/03/20 11:20:24;;;;;;;36.27;26.33;;;;;;;6.18;60.48;102586.97;5250523;28;20148;-69
2022/03/20 11:22:59;;;;;;;36.55;27.27;;;;;;;6.26;60.15;102589.50;5234011;28;20056;-68
2022/03/20 11:25:33;;;;;;;43.90;30.15;;;;;;;6.23;60.04;102579.13;5252516;28;20021;-68
2022/03/20 11:28:09;;;;;;;36.60;27.10;;;;;;;6.28;60.13;102578.16;5253576;28;20542;-67
2022/03/20 11:30:44;;;;;;;36.83;27.33;;;;;;;6.24;60.20;102578.25;5250902;28;20035;-68
2022/03/20 11:33:19;;;;;;;35.47;28.10;;;;;;;6.17;60.41;102577.47;5250207;28;20517;-67
2022/03/20 11:35:51;;;;;;;34.43;26.87;;;;;;;6.25;60.73;102575.63;5253654;28;20021;-67
2022/03/20 11:38:25;;;;;;;33.83;26.80;;;;;;;6.33;60.39;102574.66;5250361;28;20027;-68
2022/03/20 11:41:12;;;;;;;37.58;26.77;;;;;;;6.78;59.36;102567.06;5251295;28;20529;-68
2022/03/20 11:44:06;;;;;;;33.43;26.20;;;;;;;6.79;59.33;102573.09;5249877;28;20025;-68
2022/03/20 11:46:38;;;;;;;34.20;25.70;;;;;;;6.91;58.98;102577.28;5250413;28;20119;-68
2022/03/20 11:49:15;;;;;;;31.80;25.77;;;;;;;6.94;58.25;102582.44;5250795;28;20040;-68
2022/03/20 11:51:49;;;;;;;39.03;28.00;;;;;;;6.93;58.50;102582.47;5250684;28;20378;-70
2022/03/20 11:54:28;;;;;;;34.70;25.83;;;;;;;7.15;57.11;102569.94;5250331;28;20005;-68
2022/03/20 11:57:00;;;;;;;36.03;27.77;;;;;;;7.19;56.71;102565.53;5249896;28;20060;-71
2022/03/20 11:59:45;;;;;;;35.03;27.77;;;;;;;7.26;56.17;102577.56;5250413;28;20057;-78
2022/03/20 12:02:18;;;;;;;33.40;26.30;;;;;;;7.10;55.74;102571.75;5250373;28;20169;-70
2022/03/20 12:05:15;;;;;;;33.53;25.33;;;;;;;7.00;55.43;102571.91;5250669;28;20491;-86
2022/03/20 12:08:08;;;;;;;36.50;27.40;;;;;;;7.14;54.76;102578.59;5250090;28;20056;-75
2022/03/20 12:11:16;;;;;;;34.37;26.73;;;;;;;7.00;55.02;102571.91;5250617;28;20586;-68
2022/03/20 12:13:52;;;;;;;32.50;27.00;;;;;;;7.18;55.33;102558.56;5249463;28;20091;-69
2022/03/20 12:16:42;;;;;;;33.77;26.07;;;;;;;7.16;56.11;102569.03;5249881;28;20430;-70
2022/03/20 12:19:14;;;;;;;34.57;25.77;;;;;;;7.12;56.75;102562.16;5231390;28;20029;-73
2022/03/20 12:21:56;;;;;;;34.83;27.93;;;;;;;7.10;54.94;102546.53;5250104;28;20017;-71
2022/03/20 12:24:52;;;;;;;33.97;24.47;;;;;;;7.32;54.68;102551.38;5231444;28;20025;-70